20:45
Airports
History
Links
Donate
Help keep this website running!
PayPal
Bitcoin
This page is community maintained. The information is intended for PC simulator navigation or reference.
Always use approved charts for navigation.
EGAC
Belfast City
Belfast City (EGAC)
Belfast, Northern Ireland, United Kingdom
(C)
Lat/Lng:54° 37' 5.19" N / 5° 52' 21.27" W
54.618108 / -5.872575
Elevation:15'ft / 5mMSL
ID / ICAO:EGAC
Runways:1
Longest:04-22
Asphalt 1,835m / 6,019ft
Controlled:Yes
METAR20:20 GMT 2017-09-22
Altimeter: 29.94
Visibility: 6.2 statute miles
Wind: 2 knots (from VRB°)
Temp: 11°c / 52°f
Humidity: 93.5%

METAR: EGAC 222020Z VRB02KT CAVOK 11/10 Q1014

(Powered by phpweather)
Airport Radio Frequencies
ATIS: 136.62
Tower: 122.82
Approach: 130.85
Nearby VORs <50NM
Nearby NDBs
Runway 04 / 22
Dimensions:1834.6 x 45.1m 6019' x 148'ft
Surface:Asphalt
Edge Lights:High intensity
Runway 04 [A]Runway 22 [B]
Heading:034°TH 214°TH
Lat:
Lng:
54° 36' 40.89"N
5° 52' 50.59"W
54° 37' 29.49"N
5° 51' 51.95"W
ALS:MALSCalvert
User Notes and Comments
54° 37' 5.19" N / 5° 52' 21.27" W
Distance To
Airport ID:
Nearby Airports
(U) Newtownards 7.6 NM
EGAD ESE 109°
(C) Belfast Aldergrove 13.9 NM
EGAA ( WX ) W 279°
(U) Langford Lodge 17.1 NM
EGAL W 271°
(U) Mullaghmore 40.0 NM
XMUL NW 314°
(U) Movenis 40.0 NM
EG71 NW 309°
(C) West Freugh 40.3 NM
EGOY ENE 66°
4 Bellarena 54.8 NM
EG05 NW 307°
VFR Chart
Flight Planning at SkyVector.com